sensor_id;sensor_type;location;lat;lon;timestamp;P1;durP1;ratioP1;P2;durP2;ratioP2
8139;SDS011;4111;50.972;7.072;2024-03-23T00:54:13;13.90;;;8.73;;
8139;SDS011;4111;50.972;7.072;2024-03-23T00:56:39;16.33;;;8.67;;
8139;SDS011;4111;50.972;7.072;2024-03-23T00:59:04;20.50;;;9.07;;
8139;SDS011;4111;50.972;7.072;2024-03-23T01:01:30;17.33;;;8.20;;
8139;SDS011;4111;50.972;7.072;2024-03-23T01:03:55;15.23;;;8.23;;
8139;SDS011;4111;50.972;7.072;2024-03-23T01:06:21;18.63;;;7.87;;
8139;SDS011;4111;50.972;7.072;2024-03-23T01:08:46;18.83;;;7.80;;
8139;SDS011;4111;50.972;7.072;2024-03-23T01:11:12;16.17;;;8.50;;
8139;SDS011;4111;50.972;7.072;2024-03-23T01:13:37;16.87;;;8.50;;
8139;SDS011;4111;50.972;7.072;2024-03-23T01:16:03;16.57;;;7.97;;
8139;SDS011;4111;50.972;7.072;2024-03-23T01:18:28;14.87;;;8.00;;
8139;SDS011;4111;50.972;7.072;2024-03-23T01:20:54;20.03;;;8.50;;
8139;SDS011;4111;50.972;7.072;2024-03-23T01:23:20;16.17;;;8.20;;
8139;SDS011;4111;50.972;7.072;2024-03-23T01:25:52;16.57;;;8.17;;
8139;SDS011;4111;50.972;7.072;2024-03-23T01:28:19;17.50;;;6.67;;
8139;SDS011;4111;50.972;7.072;2024-03-23T01:30:45;14.07;;;7.53;;
8139;SDS011;4111;50.972;7.072;2024-03-23T01:33:11;15.93;;;6.80;;
8139;SDS011;4111;50.972;7.072;2024-03-23T01:35:37;13.10;;;6.50;;
8139;SDS011;4111;50.972;7.072;2024-03-23T01:38:03;14.23;;;6.20;;
8139;SDS011;4111;50.972;7.072;2024-03-23T01:40:28;10.00;;;5.83;;
8139;SDS011;4111;50.972;7.072;2024-03-23T01:42:57;11.80;;;5.30;;
8139;SDS011;4111;50.972;7.072;2024-03-23T01:45:24;12.87;;;4.10;;
8139;SDS011;4111;50.972;7.072;2024-03-23T01:47:50;11.00;;;3.73;;
8139;SDS011;4111;50.972;7.072;2024-03-23T01:50:17;11.30;;;3.90;;
8139;SDS011;4111;50.972;7.072;2024-03-23T01:52:42;11.83;;;4.10;;
8139;SDS011;4111;50.972;7.072;2024-03-23T01:55:08;11.33;;;3.83;;
8139;SDS011;4111;50.972;7.072;2024-03-23T01:57:33;6.40;;;2.93;;
8139;SDS011;4111;50.972;7.072;2024-03-23T01:59:59;5.70;;;3.00;;
8139;SDS011;4111;50.972;7.072;2024-03-23T02:02:24;6.23;;;2.70;;
8139;SDS011;4111;50.972;7.072;2024-03-23T02:04:50;9.77;;;3.17;;
8139;SDS011;4111;50.972;7.072;2024-03-23T02:07:16;8.17;;;2.97;;
8139;SDS011;4111;50.972;7.072;2024-03-23T02:09:41;5.03;;;2.50;;
8139;SDS011;4111;50.972;7.072;2024-03-23T02:12:07;6.17;;;2.63;;
8139;SDS011;4111;50.972;7.072;2024-03-23T02:14:33;8.97;;;2.53;;
8139;SDS011;4111;50.972;7.072;2024-03-23T02:16:59;6.90;;;2.77;;
8139;SDS011;4111;50.972;7.072;2024-03-23T02:19:24;9.30;;;3.03;;
8139;SDS011;4111;50.972;7.072;2024-03-23T02:21:49;9.40;;;3.67;;
8139;SDS011;4111;50.972;7.072;2024-03-23T02:24:15;7.40;;;2.77;;
8139;SDS011;4111;50.972;7.072;2024-03-23T02:26:40;8.77;;;3.03;;
8139;SDS011;4111;50.972;7.072;2024-03-23T02:29:06;12.33;;;3.27;;
8139;SDS011;4111;50.972;7.072;2024-03-23T02:31:32;12.97;;;3.03;;
8139;SDS011;4111;50.972;7.072;2024-03-23T02:33:57;8.10;;;2.80;;
8139;SDS011;4111;50.972;7.072;2024-03-23T02:36:23;11.30;;;3.50;;
8139;SDS011;4111;50.972;7.072;2024-03-23T02:38:48;12.40;;;3.30;;
8139;SDS011;4111;50.972;7.072;2024-03-23T02:41:14;10.27;;;3.00;;
8139;SDS011;4111;50.972;7.072;2024-03-23T02:43:39;9.63;;;2.90;;
8139;SDS011;4111;50.972;7.072;2024-03-23T02:46:05;11.07;;;3.30;;
8139;SDS011;4111;50.972;7.072;2024-03-23T02:48:30;8.33;;;3.10;;
8139;SDS011;4111;50.972;7.072;2024-03-23T02:50:56;4.37;;;2.20;;
8139;SDS011;4111;50.972;7.072;2024-03-23T02:53:21;5.80;;;2.30;;
8139;SDS011;4111;50.972;7.072;2024-03-23T02:55:47;5.00;;;2.50;;
8139;SDS011;4111;50.972;7.072;2024-03-23T02:58:12;9.37;;;2.87;;
8139;SDS011;4111;50.972;7.072;2024-03-23T03:00:38;7.57;;;3.30;;
8139;SDS011;4111;50.972;7.072;2024-03-23T03:03:03;6.23;;;3.60;;
8139;SDS011;4111;50.972;7.072;2024-03-23T03:05:29;7.53;;;4.20;;
8139;SDS011;4111;50.972;7.072;2024-03-23T03:07:54;10.23;;;3.63;;
8139;SDS011;4111;50.972;7.072;2024-03-23T03:10:20;10.10;;;3.63;;
8139;SDS011;4111;50.972;7.072;2024-03-23T03:12:45;7.33;;;3.83;;
8139;SDS011;4111;50.972;7.072;2024-03-23T03:15:11;10.30;;;3.73;;
8139;SDS011;4111;50.972;7.072;2024-03-23T03:17:36;12.73;;;4.03;;
8139;SDS011;4111;50.972;7.072;2024-03-23T03:20:02;5.53;;;3.50;;
8139;SDS011;4111;50.972;7.072;2024-03-23T03:22:29;8.23;;;3.80;;
8139;SDS011;4111;50.972;7.072;2024-03-23T03:24:55;8.10;;;3.50;;
8139;SDS011;4111;50.972;7.072;2024-03-23T03:27:20;8.33;;;3.37;;
8139;SDS011;4111;50.972;7.072;2024-03-23T03:29:47;7.20;;;3.17;;
8139;SDS011;4111;50.972;7.072;2024-03-23T03:32:13;9.77;;;3.90;;
8139;SDS011;4111;50.972;7.072;2024-03-23T03:34:38;11.57;;;3.40;;
8139;SDS011;4111;50.972;7.072;2024-03-23T03:37:04;10.57;;;4.07;;
8139;SDS011;4111;50.972;7.072;2024-03-23T03:39:29;6.10;;;3.43;;
8139;SDS011;4111;50.972;7.072;2024-03-23T03:41:55;9.07;;;3.70;;
8139;SDS011;4111;50.972;7.072;2024-03-23T03:44:20;10.63;;;3.77;;
8139;SDS011;4111;50.972;7.072;2024-03-23T03:46:46;12.73;;;4.27;;
8139;SDS011;4111;50.972;7.072;2024-03-23T03:49:11;12.53;;;4.07;;
8139;SDS011;4111;50.972;7.072;2024-03-23T03:51:37;9.33;;;3.67;;
8139;SDS011;4111;50.972;7.072;2024-03-23T03:54:02;10.27;;;3.70;;
8139;SDS011;4111;50.972;7.072;2024-03-23T03:56:28;8.33;;;3.17;;
8139;SDS011;4111;50.972;7.072;2024-03-23T03:58:53;9.63;;;3.23;;
8139;SDS011;4111;50.972;7.072;2024-03-23T04:01:19;12.17;;;3.03;;
8139;SDS011;4111;50.972;7.072;2024-03-23T04:03:45;10.83;;;3.47;;
8139;SDS011;4111;50.972;7.072;2024-03-23T04:06:11;7.03;;;3.10;;
8139;SDS011;4111;50.972;7.072;2024-03-23T04:08:37;8.43;;;3.60;;
8139;SDS011;4111;50.972;7.072;2024-03-23T04:11:03;13.77;;;3.83;;
8139;SDS011;4111;50.972;7.072;2024-03-23T04:13:28;7.57;;;2.77;;
8139;SDS011;4111;50.972;7.072;2024-03-23T04:15:54;12.23;;;3.33;;
8139;SDS011;4111;50.972;7.072;2024-03-23T04:18:20;9.17;;;3.00;;
8139;SDS011;4111;50.972;7.072;2024-03-23T04:20:47;8.30;;;2.87;;
8139;SDS011;4111;50.972;7.072;2024-03-23T04:23:13;9.47;;;2.80;;
8139;SDS011;4111;50.972;7.072;2024-03-23T04:25:39;10.37;;;3.83;;
8139;SDS011;4111;50.972;7.072;2024-03-23T04:28:04;8.73;;;3.17;;
8139;SDS011;4111;50.972;7.072;2024-03-23T04:30:30;6.93;;;2.67;;
8139;SDS011;4111;50.972;7.072;2024-03-23T04:32:57;10.50;;;3.70;;
8139;SDS011;4111;50.972;7.072;2024-03-23T04:35:23;12.07;;;3.60;;
8139;SDS011;4111;50.972;7.072;2024-03-23T04:37:50;8.57;;;3.67;;
8139;SDS011;4111;50.972;7.072;2024-03-23T04:40:17;14.30;;;3.77;;
8139;SDS011;4111;50.972;7.072;2024-03-23T04:42:43;8.77;;;3.87;;
8139;SDS011;4111;50.972;7.072;2024-03-23T04:45:09;9.50;;;3.93;;
8139;SDS011;4111;50.972;7.072;2024-03-23T04:47:36;10.60;;;3.93;;
8139;SDS011;4111;50.972;7.072;2024-03-23T04:50:03;8.83;;;3.70;;
8139;SDS011;4111;50.972;7.072;2024-03-23T04:52:29;11.13;;;3.47;;
8139;SDS011;4111;50.972;7.072;2024-03-23T04:54:55;13.37;;;3.13;;
8139;SDS011;4111;50.972;7.072;2024-03-23T04:57:20;10.57;;;3.33;;
8139;SDS011;4111;50.972;7.072;2024-03-23T04:59:46;12.37;;;3.33;;
8139;SDS011;4111;50.972;7.072;2024-03-23T05:02:12;6.50;;;2.30;;
8139;SDS011;4111;50.972;7.072;2024-03-23T05:04:38;10.23;;;3.10;;
8139;SDS011;4111;50.972;7.072;2024-03-23T05:07:04;13.17;;;3.30;;
8139;SDS011;4111;50.972;7.072;2024-03-23T05:09:29;7.47;;;3.17;;
8139;SDS011;4111;50.972;7.072;2024-03-23T05:11:59;10.77;;;3.20;;
8139;SDS011;4111;50.972;7.072;2024-03-23T05:14:28;8.93;;;2.70;;
8139;SDS011;4111;50.972;7.072;2024-03-23T05:16:54;7.30;;;2.50;;
8139;SDS011;4111;50.972;7.072;2024-03-23T05:19:20;8.90;;;2.70;;
8139;SDS011;4111;50.972;7.072;2024-03-23T05:21:45;10.47;;;2.60;;
8139;SDS011;4111;50.972;7.072;2024-03-23T05:24:11;5.93;;;2.27;;
8139;SDS011;4111;50.972;7.072;2024-03-23T05:26:37;14.03;;;2.77;;
8139;SDS011;4111;50.972;7.072;2024-03-23T05:29:03;7.97;;;2.33;;
8139;SDS011;4111;50.972;7.072;2024-03-23T05:31:29;9.33;;;2.70;;
8139;SDS011;4111;50.972;7.072;2024-03-23T05:33:56;9.87;;;2.60;;
8139;SDS011;4111;50.972;7.072;2024-03-23T05:36:22;10.27;;;2.80;;
8139;SDS011;4111;50.972;7.072;2024-03-23T05:38:51;9.87;;;2.50;;
8139;SDS011;4111;50.972;7.072;2024-03-23T05:41:16;10.53;;;3.10;;
8139;SDS011;4111;50.972;7.072;2024-03-23T05:43:42;7.63;;;2.60;;
8139;SDS011;4111;50.972;7.072;2024-03-23T05:46:07;10.77;;;2.73;;
8139;SDS011;4111;50.972;7.072;2024-03-23T05:48:34;11.17;;;2.70;;
8139;SDS011;4111;50.972;7.072;2024-03-23T05:50:59;8.70;;;2.70;;
8139;SDS011;4111;50.972;7.072;2024-03-23T05:53:25;7.97;;;2.57;;
8139;SDS011;4111;50.972;7.072;2024-03-23T05:55:51;7.57;;;3.53;;
8139;SDS011;4111;50.972;7.072;2024-03-23T05:58:24;10.47;;;3.07;;
8139;SDS011;4111;50.972;7.072;2024-03-23T06:00:56;8.67;;;2.70;;
8139;SDS011;4111;50.972;7.072;2024-03-23T06:03:22;11.07;;;2.80;;
8139;SDS011;4111;50.972;7.072;2024-03-23T06:05:48;8.07;;;2.50;;
8139;SDS011;4111;50.972;7.072;2024-03-23T06:08:13;9.93;;;2.83;;
8139;SDS011;4111;50.972;7.072;2024-03-23T06:10:40;15.33;;;3.00;;
8139;SDS011;4111;50.972;7.072;2024-03-23T06:13:05;11.73;;;2.80;;
8139;SDS011;4111;50.972;7.072;2024-03-23T06:15:31;10.40;;;2.97;;
8139;SDS011;4111;50.972;7.072;2024-03-23T06:17:57;8.03;;;3.47;;
8139;SDS011;4111;50.972;7.072;2024-03-23T06:20:22;9.17;;;2.80;;
8139;SDS011;4111;50.972;7.072;2024-03-23T06:22:47;8.60;;;2.60;;
8139;SDS011;4111;50.972;7.072;2024-03-23T06:25:13;10.70;;;2.70;;
8139;SDS011;4111;50.972;7.072;2024-03-23T06:27:39;13.83;;;3.27;;
8139;SDS011;4111;50.972;7.072;2024-03-23T06:30:05;9.77;;;2.73;;
8139;SDS011;4111;50.972;7.072;2024-03-23T06:32:32;9.53;;;2.77;;
8139;SDS011;4111;50.972;7.072;2024-03-23T06:34:57;10.20;;;2.80;;
8139;SDS011;4111;50.972;7.072;2024-03-23T06:37:23;8.70;;;2.70;;
8139;SDS011;4111;50.972;7.072;2024-03-23T06:39:48;9.80;;;3.10;;
8139;SDS011;4111;50.972;7.072;2024-03-23T06:42:14;11.87;;;2.57;;
8139;SDS011;4111;50.972;7.072;2024-03-23T06:44:39;19.17;;;3.60;;
8139;SDS011;4111;50.972;7.072;2024-03-23T06:47:05;7.83;;;3.07;;
8139;SDS011;4111;50.972;7.072;2024-03-23T06:49:31;9.97;;;2.93;;
8139;SDS011;4111;50.972;7.072;2024-03-23T06:51:56;11.47;;;3.23;;
8139;SDS011;4111;50.972;7.072;2024-03-23T06:54:22;9.27;;;3.23;;
8139;SDS011;4111;50.972;7.072;2024-03-23T06:56:47;14.23;;;3.30;;
8139;SDS011;4111;50.972;7.072;2024-03-23T06:59:13;14.43;;;3.00;;
8139;SDS011;4111;50.972;7.072;2024-03-23T07:01:39;14.97;;;3.37;;
8139;SDS011;4111;50.972;7.072;2024-03-23T07:04:05;10.20;;;3.00;;
8139;SDS011;4111;50.972;7.072;2024-03-23T07:06:30;10.70;;;3.30;;
8139;SDS011;4111;50.972;7.072;2024-03-23T07:08:56;9.33;;;3.43;;
8139;SDS011;4111;50.972;7.072;2024-03-23T07:11:22;10.20;;;3.17;;
8139;SDS011;4111;50.972;7.072;2024-03-23T07:13:51;9.57;;;2.90;;
8139;SDS011;4111;50.972;7.072;2024-03-23T07:16:20;13.73;;;3.87;;
8139;SDS011;4111;50.972;7.072;2024-03-23T07:18:45;8.83;;;3.83;;
8139;SDS011;4111;50.972;7.072;2024-03-23T07:21:11;10.57;;;3.70;;
8139;SDS011;4111;50.972;7.072;2024-03-23T07:23:36;9.67;;;3.63;;
8139;SDS011;4111;50.972;7.072;2024-03-23T07:26:03;12.20;;;4.50;;
8139;SDS011;4111;50.972;7.072;2024-03-23T07:28:30;12.13;;;4.07;;
8139;SDS011;4111;50.972;7.072;2024-03-23T07:31:09;11.80;;;3.87;;
8139;SDS011;4111;50.972;7.072;2024-03-23T07:33:36;12.03;;;4.27;;
8139;SDS011;4111;50.972;7.072;2024-03-23T07:36:06;12.97;;;4.33;;
8139;SDS011;4111;50.972;7.072;2024-03-23T07:38:32;10.47;;;3.80;;
8139;SDS011;4111;50.972;7.072;2024-03-23T07:41:04;12.70;;;3.87;;
8139;SDS011;4111;50.972;7.072;2024-03-23T07:43:35;9.33;;;3.80;;
8139;SDS011;4111;50.972;7.072;2024-03-23T07:46:01;16.30;;;3.80;;
8139;SDS011;4111;50.972;7.072;2024-03-23T07:48:28;8.67;;;4.00;;
8139;SDS011;4111;50.972;7.072;2024-03-23T07:53:23;11.77;;;4.17;;
8139;SDS011;4111;50.972;7.072;2024-03-23T07:55:59;13.73;;;5.00;;
8139;SDS011;4111;50.972;7.072;2024-03-23T07:58:26;13.17;;;4.90;;
8139;SDS011;4111;50.972;7.072;2024-03-23T08:00:55;12.37;;;4.63;;
8139;SDS011;4111;50.972;7.072;2024-03-23T08:03:22;9.63;;;4.23;;
8139;SDS011;4111;50.972;7.072;2024-03-23T08:05:48;11.50;;;4.50;;
8139;SDS011;4111;50.972;7.072;2024-03-23T08:08:14;14.23;;;4.63;;
8139;SDS011;4111;50.972;7.072;2024-03-23T08:10:52;16.77;;;5.13;;
8139;SDS011;4111;50.972;7.072;2024-03-23T08:13:18;8.33;;;4.47;;
8139;SDS011;4111;50.972;7.072;2024-03-23T08:15:44;9.17;;;4.77;;
8139;SDS011;4111;50.972;7.072;2024-03-23T08:18:13;14.73;;;5.47;;
8139;SDS011;4111;50.972;7.072;2024-03-23T08:20:40;10.57;;;4.67;;
8139;SDS011;4111;50.972;7.072;2024-03-23T08:23:06;10.10;;;4.37;;
8139;SDS011;4111;50.972;7.072;2024-03-23T08:25:32;9.73;;;4.77;;
8139;SDS011;4111;50.972;7.072;2024-03-23T08:27:58;7.90;;;4.43;;
8139;SDS011;4111;50.972;7.072;2024-03-23T08:30:24;12.07;;;4.40;;
8139;SDS011;4111;50.972;7.072;2024-03-23T08:32:50;17.07;;;4.33;;
8139;SDS011;4111;50.972;7.072;2024-03-23T08:35:15;10.90;;;4.13;;
8139;SDS011;4111;50.972;7.072;2024-03-23T08:37:41;12.43;;;4.17;;
8139;SDS011;4111;50.972;7.072;2024-03-23T08:40:06;10.40;;;3.60;;
8139;SDS011;4111;50.972;7.072;2024-03-23T08:42:33;12.60;;;3.83;;
8139;SDS011;4111;50.972;7.072;2024-03-23T08:44:59;5.77;;;3.60;;
8139;SDS011;4111;50.972;7.072;2024-03-23T08:47:25;6.67;;;2.77;;
8139;SDS011;4111;50.972;7.072;2024-03-23T08:49:50;9.43;;;2.80;;
8139;SDS011;4111;50.972;7.072;2024-03-23T08:52:16;8.43;;;2.73;;
8139;SDS011;4111;50.972;7.072;2024-03-23T08:54:42;9.53;;;3.37;;
8139;SDS011;4111;50.972;7.072;2024-03-23T08:57:07;8.10;;;2.97;;
8139;SDS011;4111;50.972;7.072;2024-03-23T08:59:33;5.77;;;2.80;;
8139;SDS011;4111;50.972;7.072;2024-03-23T09:01:58;8.40;;;3.47;;
8139;SDS011;4111;50.972;7.072;2024-03-23T09:04:24;10.47;;;3.70;;
8139;SDS011;4111;50.972;7.072;2024-03-23T09:06:50;11.47;;;4.03;;
8139;SDS011;4111;50.972;7.072;2024-03-23T09:11:41;10.33;;;3.90;;
8139;SDS011;4111;50.972;7.072;2024-03-23T09:14:07;8.90;;;3.70;;
8139;SDS011;4111;50.972;7.072;2024-03-23T09:16:34;10.83;;;4.00;;
8139;SDS011;4111;50.972;7.072;2024-03-23T09:19:00;9.23;;;3.57;;
8139;SDS011;4111;50.972;7.072;2024-03-23T09:21:26;9.77;;;3.87;;
8139;SDS011;4111;50.972;7.072;2024-03-23T09:23:54;8.77;;;3.67;;
8139;SDS011;4111;50.972;7.072;2024-03-23T09:26:20;7.90;;;3.57;;
8139;SDS011;4111;50.972;7.072;2024-03-23T09:28:47;10.57;;;3.40;;
8139;SDS011;4111;50.972;7.072;2024-03-23T09:31:17;11.67;;;3.30;;
8139;SDS011;4111;50.972;7.072;2024-03-23T09:33:43;8.77;;;3.60;;
8139;SDS011;4111;50.972;7.072;2024-03-23T09:36:09;14.87;;;4.17;;
8139;SDS011;4111;50.972;7.072;2024-03-23T09:38:34;10.43;;;4.10;;
8139;SDS011;4111;50.972;7.072;2024-03-23T09:41:00;10.57;;;3.30;;
8139;SDS011;4111;50.972;7.072;2024-03-23T09:43:32;7.33;;;3.63;;
8139;SDS011;4111;50.972;7.072;2024-03-23T09:45:57;11.73;;;3.87;;
8139;SDS011;4111;50.972;7.072;2024-03-23T09:48:23;9.47;;;3.77;;
8139;SDS011;4111;50.972;7.072;2024-03-23T09:50:48;6.87;;;3.37;;
8139;SDS011;4111;50.972;7.072;2024-03-23T09:53:14;6.57;;;2.77;;
8139;SDS011;4111;50.972;7.072;2024-03-23T09:55:40;9.97;;;3.33;;
8139;SDS011;4111;50.972;7.072;2024-03-23T09:58:07;8.77;;;3.13;;
8139;SDS011;4111;50.972;7.072;2024-03-23T10:00:36;9.67;;;2.90;;
8139;SDS011;4111;50.972;7.072;2024-03-23T10:03:02;10.50;;;3.10;;
8139;SDS011;4111;50.972;7.072;2024-03-23T10:05:30;6.13;;;2.67;;
8139;SDS011;4111;50.972;7.072;2024-03-23T10:10:44;9.00;;;2.80;;
8139;SDS011;4111;50.972;7.072;2024-03-23T10:13:10;9.47;;;3.00;;
8139;SDS011;4111;50.972;7.072;2024-03-23T10:15:39;6.30;;;2.40;;
8139;SDS011;4111;50.972;7.072;2024-03-23T10:18:17;6.67;;;2.67;;
8139;SDS011;4111;50.972;7.072;2024-03-23T10:20:47;3.83;;;2.53;;
8139;SDS011;4111;50.972;7.072;2024-03-23T10:23:17;7.30;;;2.87;;
8139;SDS011;4111;50.972;7.072;2024-03-23T10:25:42;7.77;;;2.10;;
8139;SDS011;4111;50.972;7.072;2024-03-23T10:28:08;6.83;;;2.50;;
8139;SDS011;4111;50.972;7.072;2024-03-23T10:30:34;5.00;;;2.50;;
8139;SDS011;4111;50.972;7.072;2024-03-23T10:33:33;6.80;;;2.50;;
8139;SDS011;4111;50.972;7.072;2024-03-23T10:35:52;4.80;;;1.93;;
8139;SDS011;4111;50.972;7.072;2024-03-23T10:38:18;6.63;;;2.20;;
8139;SDS011;4111;50.972;7.072;2024-03-23T10:40:44;3.63;;;1.80;;
8139;SDS011;4111;50.972;7.072;2024-03-23T10:43:10;5.73;;;2.30;;
8139;SDS011;4111;50.972;7.072;2024-03-23T10:45:37;8.37;;;2.27;;
8139;SDS011;4111;50.972;7.072;2024-03-23T10:48:11;5.87;;;1.90;;
8139;SDS011;4111;50.972;7.072;2024-03-23T10:50:37;6.40;;;2.23;;
8139;SDS011;4111;50.972;7.072;2024-03-23T10:53:02;8.10;;;2.30;;
8139;SDS011;4111;50.972;7.072;2024-03-23T10:55:28;7.00;;;2.10;;
8139;SDS011;4111;50.972;7.072;2024-03-23T10:57:55;10.93;;;6.27;;
8139;SDS011;4111;50.972;7.072;2024-03-23T11:00:24;5.57;;;2.00;;
8139;SDS011;4111;50.972;7.072;2024-03-23T11:02:50;3.63;;;1.90;;
8139;SDS011;4111;50.972;7.072;2024-03-23T11:07:50;2.37;;;1.47;;
8139;SDS011;4111;50.972;7.072;2024-03-23T11:10:26;6.00;;;1.67;;
8139;SDS011;4111;50.972;7.072;2024-03-23T11:12:56;3.10;;;1.20;;
8139;SDS011;4111;50.972;7.072;2024-03-23T11:15:22;6.17;;;1.63;;
8139;SDS011;4111;50.972;7.072;2024-03-23T11:18:01;3.87;;;1.50;;
8139;SDS011;4111;50.972;7.072;2024-03-23T11:20:33;4.07;;;1.47;;
8139;SDS011;4111;50.972;7.072;2024-03-23T11:23:02;11.63;;;5.37;;
8139;SDS011;4111;50.972;7.072;2024-03-23T11:25:27;3.10;;;1.80;;
8139;SDS011;4111;50.972;7.072;2024-03-23T11:27:58;5.27;;;1.83;;
8139;SDS011;4111;50.972;7.072;2024-03-23T11:30:35;5.30;;;1.90;;
8139;SDS011;4111;50.972;7.072;2024-03-23T11:33:03;7.50;;;2.20;;
8139;SDS011;4111;50.972;7.072;2024-03-23T11:35:30;1.50;;;1.40;;
8139;SDS011;4111;50.972;7.072;2024-03-23T11:38:03;4.37;;;1.50;;
8139;SDS011;4111;50.972;7.072;2024-03-23T11:40:39;5.43;;;1.33;;
8139;SDS011;4111;50.972;7.072;2024-03-23T11:43:10;2.67;;;1.27;;
8139;SDS011;4111;50.972;7.072;2024-03-23T11:45:38;3.50;;;2.07;;
8139;SDS011;4111;50.972;7.072;2024-03-23T11:48:12;4.27;;;1.20;;
8139;SDS011;4111;50.972;7.072;2024-03-23T11:50:42;3.20;;;1.13;;
8139;SDS011;4111;50.972;7.072;2024-03-23T11:53:12;2.60;;;1.30;;
8139;SDS011;4111;50.972;7.072;2024-03-23T11:55:51;2.30;;;1.10;;
8139;SDS011;4111;50.972;7.072;2024-03-23T11:58:18;1.60;;;0.97;;
8139;SDS011;4111;50.972;7.072;2024-03-23T12:00:57;2.37;;;1.10;;
8139;SDS011;4111;50.972;7.072;2024-03-23T12:03:28;1.47;;;1.00;;
8139;SDS011;4111;50.972;7.072;2024-03-23T12:05:58;3.30;;;1.23;;
8139;SDS011;4111;50.972;7.072;2024-03-23T12:08:34;3.33;;;1.23;;
8139;SDS011;4111;50.972;7.072;2024-03-23T12:11:07;3.27;;;1.17;;
8139;SDS011;4111;50.972;7.072;2024-03-23T12:13:37;1.93;;;1.33;;
8139;SDS011;4111;50.972;7.072;2024-03-23T12:16:09;5.57;;;1.70;;
8139;SDS011;4111;50.972;7.072;2024-03-23T12:18:35;2.83;;;1.23;;
8139;SDS011;4111;50.972;7.072;2024-03-23T12:21:01;1.77;;;1.30;;
8139;SDS011;4111;50.972;7.072;2024-03-23T12:23:28;7.00;;;1.80;;
8139;SDS011;4111;50.972;7.072;2024-03-23T12:25:53;4.17;;;1.60;;
8139;SDS011;4111;50.972;7.072;2024-03-23T12:28:19;3.07;;;1.87;;
8139;SDS011;4111;50.972;7.072;2024-03-23T12:30:44;3.63;;;1.60;;
8139;SDS011;4111;50.972;7.072;2024-03-23T12:33:09;4.47;;;1.70;;
8139;SDS011;4111;50.972;7.072;2024-03-23T12:35:35;3.37;;;1.40;;
8139;SDS011;4111;50.972;7.072;2024-03-23T12:38:00;4.30;;;1.57;;
8139;SDS011;4111;50.972;7.072;2024-03-23T12:40:26;2.87;;;1.27;;
8139;SDS011;4111;50.972;7.072;2024-03-23T12:42:53;1.97;;;1.47;;
8139;SDS011;4111;50.972;7.072;2024-03-23T12:45:19;1.33;;;1.00;;
8139;SDS011;4111;50.972;7.072;2024-03-23T12:47:44;1.87;;;1.40;;
8139;SDS011;4111;50.972;7.072;2024-03-23T12:50:10;2.27;;;1.30;;
8139;SDS011;4111;50.972;7.072;2024-03-23T12:52:36;1.23;;;1.10;;
8139;SDS011;4111;50.972;7.072;2024-03-23T12:55:02;1.27;;;0.90;;
8139;SDS011;4111;50.972;7.072;2024-03-23T12:57:30;1.47;;;0.93;;
8139;SDS011;4111;50.972;7.072;2024-03-23T12:59:57;2.03;;;0.80;;
8139;SDS011;4111;50.972;7.072;2024-03-23T13:02:22;1.47;;;0.90;;
8139;SDS011;4111;50.972;7.072;2024-03-23T13:04:54;1.10;;;1.00;;
8139;SDS011;4111;50.972;7.072;2024-03-23T13:07:21;2.50;;;1.33;;
8139;SDS011;4111;50.972;7.072;2024-03-23T13:09:49;1.27;;;1.17;;
8139;SDS011;4111;50.972;7.072;2024-03-23T13:12:16;1.33;;;0.90;;
8139;SDS011;4111;50.972;7.072;2024-03-23T13:14:43;1.20;;;1.10;;
8139;SDS011;4111;50.972;7.072;2024-03-23T13:17:09;2.50;;;0.90;;
8139;SDS011;4111;50.972;7.072;2024-03-23T13:19:35;3.17;;;1.00;;
8139;SDS011;4111;50.972;7.072;2024-03-23T13:22:00;1.50;;;0.90;;
8139;SDS011;4111;50.972;7.072;2024-03-23T13:24:27;2.30;;;0.93;;
8139;SDS011;4111;50.972;7.072;2024-03-23T13:26:59;1.13;;;0.90;;
8139;SDS011;4111;50.972;7.072;2024-03-23T13:29:30;2.23;;;1.30;;
8139;SDS011;4111;50.972;7.072;2024-03-23T13:31:56;3.80;;;1.30;;
8139;SDS011;4111;50.972;7.072;2024-03-23T13:34:22;2.33;;;1.23;;
8139;SDS011;4111;50.972;7.072;2024-03-23T13:36:48;2.17;;;1.37;;
8139;SDS011;4111;50.972;7.072;2024-03-23T13:39:14;1.93;;;1.40;;
8139;SDS011;4111;50.972;7.072;2024-03-23T13:41:44;2.67;;;1.47;;
8139;SDS011;4111;50.972;7.072;2024-03-23T13:44:18;2.57;;;1.37;;
8139;SDS011;4111;50.972;7.072;2024-03-23T13:46:47;2.20;;;1.43;;
8139;SDS011;4111;50.972;7.072;2024-03-23T13:49:28;3.10;;;1.70;;
8139;SDS011;4111;50.972;7.072;2024-03-23T13:52:13;4.03;;;1.67;;
8139;SDS011;4111;50.972;7.072;2024-03-23T13:54:43;2.87;;;1.77;;
8139;SDS011;4111;50.972;7.072;2024-03-23T13:57:11;2.43;;;1.87;;
8139;SDS011;4111;50.972;7.072;2024-03-23T13:59:39;5.63;;;2.07;;
8139;SDS011;4111;50.972;7.072;2024-03-23T14:02:08;4.73;;;1.67;;
8139;SDS011;4111;50.972;7.072;2024-03-23T14:04:43;3.70;;;1.67;;
8139;SDS011;4111;50.972;7.072;2024-03-23T14:07:08;4.00;;;1.97;;
8139;SDS011;4111;50.972;7.072;2024-03-23T14:09:37;3.27;;;1.50;;
8139;SDS011;4111;50.972;7.072;2024-03-23T14:12:03;2.03;;;1.50;;
8139;SDS011;4111;50.972;7.072;2024-03-23T14:14:29;2.00;;;1.30;;
8139;SDS011;4111;50.972;7.072;2024-03-23T14:17:04;2.20;;;1.10;;
8139;SDS011;4111;50.972;7.072;2024-03-23T14:19:29;1.90;;;1.00;;
8139;SDS011;4111;50.972;7.072;2024-03-23T14:21:55;1.50;;;1.00;;
8139;SDS011;4111;50.972;7.072;2024-03-23T14:24:21;2.97;;;1.03;;
8139;SDS011;4111;50.972;7.072;2024-03-23T14:26:47;1.43;;;1.33;;
8139;SDS011;4111;50.972;7.072;2024-03-23T14:29:22;2.13;;;1.30;;
8139;SDS011;4111;50.972;7.072;2024-03-23T14:31:59;1.77;;;1.10;;
8139;SDS011;4111;50.972;7.072;2024-03-23T14:34:28;2.53;;;1.77;;
8139;SDS011;4111;50.972;7.072;2024-03-23T14:36:54;2.20;;;1.60;;
8139;SDS011;4111;50.972;7.072;2024-03-23T14:39:22;2.00;;;1.50;;
8139;SDS011;4111;50.972;7.072;2024-03-23T14:41:50;4.93;;;1.57;;
8139;SDS011;4111;50.972;7.072;2024-03-23T14:44:17;4.23;;;1.57;;
8139;SDS011;4111;50.972;7.072;2024-03-23T14:46:42;1.77;;;1.27;;
8139;SDS011;4111;50.972;7.072;2024-03-23T14:49:14;2.93;;;1.40;;
8139;SDS011;4111;50.972;7.072;2024-03-23T14:51:43;3.60;;;1.27;;
8139;SDS011;4111;50.972;7.072;2024-03-23T14:54:09;5.83;;;2.00;;
8139;SDS011;4111;50.972;7.072;2024-03-23T14:56:35;3.93;;;1.33;;
8139;SDS011;4111;50.972;7.072;2024-03-23T14:59:01;5.40;;;1.73;;
8139;SDS011;4111;50.972;7.072;2024-03-23T15:01:26;5.20;;;1.80;;
8139;SDS011;4111;50.972;7.072;2024-03-23T15:03:52;2.73;;;1.50;;
8139;SDS011;4111;50.972;7.072;2024-03-23T15:06:21;1.80;;;1.50;;
8139;SDS011;4111;50.972;7.072;2024-03-23T15:08:49;2.10;;;1.03;;
8139;SDS011;4111;50.972;7.072;2024-03-23T15:11:15;2.57;;;1.37;;
8139;SDS011;4111;50.972;7.072;2024-03-23T15:13:43;3.43;;;1.43;;
8139;SDS011;4111;50.972;7.072;2024-03-23T15:16:09;2.47;;;1.30;;
8139;SDS011;4111;50.972;7.072;2024-03-23T15:18:35;1.80;;;1.13;;
8139;SDS011;4111;50.972;7.072;2024-03-23T15:21:03;2.47;;;1.50;;
8139;SDS011;4111;50.972;7.072;2024-03-23T15:23:31;4.47;;;2.00;;
8139;SDS011;4111;50.972;7.072;2024-03-23T15:26:01;2.17;;;1.20;;
8139;SDS011;4111;50.972;7.072;2024-03-23T15:28:33;2.20;;;1.07;;
8139;SDS011;4111;50.972;7.072;2024-03-23T15:31:22;2.47;;;2.07;;
8139;SDS011;4111;50.972;7.072;2024-03-23T15:33:51;5.27;;;2.10;;
8139;SDS011;4111;50.972;7.072;2024-03-23T15:36:18;2.93;;;1.90;;
8139;SDS011;4111;50.972;7.072;2024-03-23T15:38:44;1.37;;;1.20;;
8139;SDS011;4111;50.972;7.072;2024-03-23T15:41:13;2.13;;;1.40;;
8139;SDS011;4111;50.972;7.072;2024-03-23T15:43:41;3.00;;;1.50;;
8139;SDS011;4111;50.972;7.072;2024-03-23T15:46:07;4.80;;;1.30;;
8139;SDS011;4111;50.972;7.072;2024-03-23T15:48:35;1.57;;;1.20;;
8139;SDS011;4111;50.972;7.072;2024-03-23T15:51:08;2.57;;;1.10;;
8139;SDS011;4111;50.972;7.072;2024-03-23T15:53:34;2.13;;;1.20;;
8139;SDS011;4111;50.972;7.072;2024-03-23T15:56:00;3.37;;;1.40;;
8139;SDS011;4111;50.972;7.072;2024-03-23T15:58:32;3.00;;;1.57;;
8139;SDS011;4111;50.972;7.072;2024-03-23T16:01:00;3.77;;;1.70;;
8139;SDS011;4111;50.972;7.072;2024-03-23T16:03:26;1.20;;;1.10;;
8139;SDS011;4111;50.972;7.072;2024-03-23T16:06:02;2.73;;;1.30;;
8139;SDS011;4111;50.972;7.072;2024-03-23T16:08:29;2.87;;;1.60;;
8139;SDS011;4111;50.972;7.072;2024-03-23T16:11:03;2.23;;;1.50;;
8139;SDS011;4111;50.972;7.072;2024-03-23T16:13:39;2.17;;;1.50;;